sensor_id;sensor_type;location;lat;lon;timestamp;pressure;altitude;pressure_sealevel;temperature;humidity
75420;BME280;63998;52.488;13.428;2023-06-14T00:01:43;101286.72;;;17.19;50.30
75420;BME280;63998;52.488;13.428;2023-06-14T00:04:11;101285.88;;;17.18;50.02
75420;BME280;63998;52.488;13.428;2023-06-14T00:06:36;101296.34;;;17.20;50.56
75420;BME280;63998;52.488;13.428;2023-06-14T00:09:03;101281.50;;;17.19;50.43
75420;BME280;63998;52.488;13.428;2023-06-14T00:11:30;101285.13;;;17.12;50.43
75420;BME280;63998;52.488;13.428;2023-06-14T00:13:55;101289.53;;;17.10;50.58
75420;BME280;63998;52.488;13.428;2023-06-14T00:16:21;101288.59;;;17.14;51.00
75420;BME280;63998;52.488;13.428;2023-06-14T00:18:46;101294.75;;;17.11;51.12
75420;BME280;63998;52.488;13.428;2023-06-14T00:21:12;101298.25;;;17.12;51.55
75420;BME280;63998;52.488;13.428;2023-06-14T00:23:37;101292.25;;;17.05;51.58
75420;BME280;63998;52.488;13.428;2023-06-14T00:26:03;101295.81;;;17.00;51.99
75420;BME280;63998;52.488;13.428;2023-06-14T00:28:29;101287.09;;;16.98;51.83
75420;BME280;63998;52.488;13.428;2023-06-14T00:30:54;101294.13;;;16.96;51.97
75420;BME280;63998;52.488;13.428;2023-06-14T00:33:20;101288.94;;;16.93;52.43
75420;BME280;63998;52.488;13.428;2023-06-14T00:35:45;101292.53;;;16.85;51.98
75420;BME280;63998;52.488;13.428;2023-06-14T00:38:12;101299.66;;;16.77;52.76
75420;BME280;63998;52.488;13.428;2023-06-14T00:40:37;101297.06;;;16.76;52.99
75420;BME280;63998;52.488;13.428;2023-06-14T00:43:03;101299.66;;;16.77;53.17
75420;BME280;63998;52.488;13.428;2023-06-14T00:45:28;101296.31;;;16.66;53.28
75420;BME280;63998;52.488;13.428;2023-06-14T00:47:54;101293.84;;;16.54;54.28
75420;BME280;63998;52.488;13.428;2023-06-14T00:50:20;101296.47;;;16.54;53.98
75420;BME280;63998;52.488;13.428;2023-06-14T00:52:48;101295.59;;;16.52;54.44
75420;BME280;63998;52.488;13.428;2023-06-14T00:55:14;101300.13;;;16.41;55.56
75420;BME280;63998;52.488;13.428;2023-06-14T00:57:39;101299.16;;;16.46;54.08
75420;BME280;63998;52.488;13.428;2023-06-14T01:00:05;101291.25;;;16.51;54.13
75420;BME280;63998;52.488;13.428;2023-06-14T01:02:37;101289.38;;;16.58;54.61
75420;BME280;63998;52.488;13.428;2023-06-14T01:05:03;101290.22;;;16.61;54.74
75420;BME280;63998;52.488;13.428;2023-06-14T01:13:13;101291.22;;;16.54;55.41
75420;BME280;63998;52.488;13.428;2023-06-14T01:15:41;101286.75;;;16.59;54.73
75420;BME280;63998;52.488;13.428;2023-06-14T01:18:08;101288.69;;;16.45;55.61
75420;BME280;63998;52.488;13.428;2023-06-14T01:20:41;101292.16;;;16.48;55.35
75420;BME280;63998;52.488;13.428;2023-06-14T01:23:07;101294.03;;;16.39;56.09
75420;BME280;63998;52.488;13.428;2023-06-14T01:25:32;101286.22;;;16.33;55.84
75420;BME280;63998;52.488;13.428;2023-06-14T01:30:23;101292.25;;;16.42;55.50
75420;BME280;63998;52.488;13.428;2023-06-14T01:32:51;101292.25;;;16.42;56.06
75420;BME280;63998;52.488;13.428;2023-06-14T01:35:17;101291.31;;;16.45;55.44
75420;BME280;63998;52.488;13.428;2023-06-14T01:37:43;101279.06;;;16.47;55.79
75420;BME280;63998;52.488;13.428;2023-06-14T01:40:10;101280.94;;;16.37;56.15
75420;BME280;63998;52.488;13.428;2023-06-14T01:42:36;101289.69;;;16.38;56.09
75420;BME280;63998;52.488;13.428;2023-06-14T01:45:04;101287.91;;;16.40;56.05
75420;BME280;63998;52.488;13.428;2023-06-14T01:47:31;101287.91;;;16.40;55.79
75420;BME280;63998;52.488;13.428;2023-06-14T01:49:57;101289.72;;;16.35;56.02
75420;BME280;63998;52.488;13.428;2023-06-14T01:52:22;101296.66;;;16.39;55.85
75420;BME280;63998;52.488;13.428;2023-06-14T01:54:49;101286.19;;;16.36;55.83
75420;BME280;63998;52.488;13.428;2023-06-14T01:57:15;101296.72;;;16.33;56.17
75420;BME280;63998;52.488;13.428;2023-06-14T01:59:40;101297.66;;;16.29;56.33
75420;BME280;63998;52.488;13.428;2023-06-14T02:02:06;101294.94;;;16.35;56.41
75420;BME280;63998;52.488;13.428;2023-06-14T02:04:31;101294.19;;;16.27;56.48
75420;BME280;63998;52.488;13.428;2023-06-14T02:06:56;101302.09;;;16.24;56.55
75420;BME280;63998;52.488;13.428;2023-06-14T02:09:22;101296.84;;;16.24;56.64
75420;BME280;63998;52.488;13.428;2023-06-14T02:11:48;101297.88;;;16.10;57.59
75420;BME280;63998;52.488;13.428;2023-06-14T02:14:14;101303.97;;;16.12;56.94
75420;BME280;63998;52.488;13.428;2023-06-14T02:16:39;101302.25;;;16.08;56.94
75420;BME280;63998;52.488;13.428;2023-06-14T02:19:05;101303.09;;;16.12;57.16
75420;BME280;63998;52.488;13.428;2023-06-14T02:21:31;101300.47;;;16.13;57.28
75420;BME280;63998;52.488;13.428;2023-06-14T02:23:56;101301.38;;;16.09;57.49
75420;BME280;63998;52.488;13.428;2023-06-14T02:26:21;101300.50;;;16.10;57.47
75420;BME280;63998;52.488;13.428;2023-06-14T02:28:48;101300.47;;;16.13;57.39
75420;BME280;63998;52.488;13.428;2023-06-14T02:31:13;101303.97;;;16.12;57.42
75420;BME280;63998;52.488;13.428;2023-06-14T02:33:38;101301.38;;;16.11;57.38
75420;BME280;63998;52.488;13.428;2023-06-14T02:36:05;101302.25;;;16.08;57.86
75420;BME280;63998;52.488;13.428;2023-06-14T02:38:30;101303.22;;;16.04;57.81
75420;BME280;63998;52.488;13.428;2023-06-14T02:40:56;101304.16;;;15.96;58.26
75420;BME280;63998;52.488;13.428;2023-06-14T02:43:21;101305.91;;;15.95;58.09
75420;BME280;63998;52.488;13.428;2023-06-14T02:45:46;101306.00;;;15.89;58.43
75420;BME280;63998;52.488;13.428;2023-06-14T02:48:12;101310.34;;;15.89;58.28
75420;BME280;63998;52.488;13.428;2023-06-14T02:50:37;101307.78;;;15.84;58.61
75420;BME280;63998;52.488;13.428;2023-06-14T02:53:03;101310.41;;;15.84;58.63
75420;BME280;63998;52.488;13.428;2023-06-14T02:55:28;101306.09;;;15.80;58.88
75420;BME280;63998;52.488;13.428;2023-06-14T02:57:54;101308.75;;;15.77;58.48
75420;BME280;63998;52.488;13.428;2023-06-14T03:00:19;101301.75;;;15.76;58.99
75420;BME280;63998;52.488;13.428;2023-06-14T03:02:45;101307.84;;;15.78;58.85
75420;BME280;63998;52.488;13.428;2023-06-14T03:05:11;101300.03;;;15.75;59.14
75420;BME280;63998;52.488;13.428;2023-06-14T03:07:36;101304.34;;;15.79;58.76
75420;BME280;63998;52.488;13.428;2023-06-14T03:10:09;101300.84;;;15.80;58.70
75420;BME280;63998;52.488;13.428;2023-06-14T03:12:35;101300.84;;;15.80;58.85
75420;BME280;63998;52.488;13.428;2023-06-14T03:15:01;101301.78;;;15.74;58.79
75420;BME280;63998;52.488;13.428;2023-06-14T03:17:27;101300.97;;;15.68;59.07
75420;BME280;63998;52.488;13.428;2023-06-14T03:19:55;101303.66;;;15.60;59.78
75420;BME280;63998;52.488;13.428;2023-06-14T03:22:20;101309.75;;;15.64;59.68
75420;BME280;63998;52.488;13.428;2023-06-14T03:24:47;101306.25;;;15.65;59.52
75420;BME280;63998;52.488;13.428;2023-06-14T03:27:13;101313.25;;;15.63;59.87
75420;BME280;63998;52.488;13.428;2023-06-14T03:29:39;101308.88;;;15.63;59.68
75420;BME280;63998;52.488;13.428;2023-06-14T03:32:05;101305.38;;;15.66;59.50
75420;BME280;63998;52.488;13.428;2023-06-14T03:34:30;101310.63;;;15.61;59.73
75420;BME280;63998;52.488;13.428;2023-06-14T03:36:56;101308.94;;;15.53;60.08
75420;BME280;63998;52.488;13.428;2023-06-14T03:39:21;101311.56;;;15.56;60.09
75420;BME280;63998;52.488;13.428;2023-06-14T03:41:46;101320.28;;;15.52;60.42
75420;BME280;63998;52.488;13.428;2023-06-14T03:44:15;101315.06;;;15.52;60.17
75420;BME280;63998;52.488;13.428;2023-06-14T03:46:40;101315.06;;;15.58;60.05
75420;BME280;63998;52.488;13.428;2023-06-14T03:49:06;101320.22;;;15.64;60.51
75420;BME280;63998;52.488;13.428;2023-06-14T03:51:31;101321.97;;;15.62;60.01
75420;BME280;63998;52.488;13.428;2023-06-14T03:53:56;101323.69;;;15.66;59.85
75420;BME280;63998;52.488;13.428;2023-06-14T03:56:22;101318.44;;;15.69;60.07
75420;BME280;63998;52.488;13.428;2023-06-14T03:58:47;101318.56;;;15.57;60.55
75420;BME280;63998;52.488;13.428;2023-06-14T04:01:13;101324.66;;;15.54;60.43
75420;BME280;63998;52.488;13.428;2023-06-14T04:03:39;101333.31;;;15.62;60.28
75420;BME280;63998;52.488;13.428;2023-06-14T04:06:06;101330.59;;;15.73;59.68
75420;BME280;63998;52.488;13.428;2023-06-14T04:08:33;101337.53;;;15.80;60.17
75420;BME280;63998;52.488;13.428;2023-06-14T04:10:58;101340.94;;;15.88;59.83
75420;BME280;63998;52.488;13.428;2023-06-14T04:13:23;101346.13;;;15.94;60.21
75420;BME280;63998;52.488;13.428;2023-06-14T04:15:49;101351.25;;;16.03;59.20
75420;BME280;63998;52.488;13.428;2023-06-14T04:18:14;101342.50;;;16.04;59.56
75420;BME280;63998;52.488;13.428;2023-06-14T04:20:39;101344.16;;;16.11;59.35
75420;BME280;63998;52.488;13.428;2023-06-14T04:23:13;101338.03;;;16.14;59.36
75420;BME280;63998;52.488;13.428;2023-06-14T04:25:39;101340.63;;;16.15;59.19
75420;BME280;63998;52.488;13.428;2023-06-14T04:28:05;101337.88;;;16.28;58.29
75420;BME280;63998;52.488;13.428;2023-06-14T04:30:30;101340.50;;;16.28;58.88
75420;BME280;63998;52.488;13.428;2023-06-14T04:32:56;101340.41;;;16.34;58.51
75420;BME280;63998;52.488;13.428;2023-06-14T04:35:22;101349.09;;;16.39;58.50
75420;BME280;63998;52.488;13.428;2023-06-14T04:37:49;101342.88;;;16.44;58.41
75420;BME280;63998;52.488;13.428;2023-06-14T04:40:14;101348.94;;;16.51;58.07
75420;BME280;63998;52.488;13.428;2023-06-14T04:42:40;101345.38;;;16.57;57.64
75420;BME280;63998;52.488;13.428;2023-06-14T04:45:06;101347.09;;;16.62;58.04
75420;BME280;63998;52.488;13.428;2023-06-14T04:47:32;101343.53;;;16.66;57.92
75420;BME280;63998;52.488;13.428;2023-06-14T04:49:59;101343.44;;;16.72;57.32
75420;BME280;63998;52.488;13.428;2023-06-14T04:52:25;101346.09;;;16.69;56.91
75420;BME280;63998;52.488;13.428;2023-06-14T04:54:52;101345.31;;;16.61;57.59
75420;BME280;63998;52.488;13.428;2023-06-14T04:57:19;101345.31;;;16.64;57.03
75420;BME280;63998;52.488;13.428;2023-06-14T04:59:47;101349.69;;;16.64;57.44
75420;BME280;63998;52.488;13.428;2023-06-14T05:02:12;101348.81;;;16.63;57.32
75420;BME280;63998;52.488;13.428;2023-06-14T05:04:38;101347.97;;;16.58;57.53
75420;BME280;63998;52.488;13.428;2023-06-14T05:07:09;101348.81;;;16.60;57.06
75420;BME280;63998;52.488;13.428;2023-06-14T05:09:35;101345.34;;;16.58;57.59
75420;BME280;63998;52.488;13.428;2023-06-14T05:12:01;101352.31;;;16.62;56.85
75420;BME280;63998;52.488;13.428;2023-06-14T05:14:26;101351.56;;;16.52;57.40
75420;BME280;63998;52.488;13.428;2023-06-14T05:16:52;101351.44;;;16.62;57.12
75420;BME280;63998;52.488;13.428;2023-06-14T05:19:18;101343.38;;;16.78;57.10
75420;BME280;63998;52.488;13.428;2023-06-14T05:21:44;101345.78;;;16.94;56.31
75420;BME280;63998;52.488;13.428;2023-06-14T05:24:09;101351.78;;;17.02;56.15
75420;BME280;63998;52.488;13.428;2023-06-14T05:26:36;101354.19;;;17.17;55.61
75420;BME280;63998;52.488;13.428;2023-06-14T05:29:02;101361.75;;;17.35;55.34
75420;BME280;63998;52.488;13.428;2023-06-14T05:31:28;101366.91;;;17.43;55.46
75420;BME280;63998;52.488;13.428;2023-06-14T05:33:54;101366.72;;;17.53;55.27
75420;BME280;63998;52.488;13.428;2023-06-14T05:36:20;101370.06;;;17.62;55.01
75420;BME280;63998;52.488;13.428;2023-06-14T05:38:46;101368.22;;;17.70;54.92
75420;BME280;63998;52.488;13.428;2023-06-14T05:41:11;101379.53;;;17.73;55.02
75420;BME280;63998;52.488;13.428;2023-06-14T05:43:37;101376.84;;;17.78;54.30
75420;BME280;63998;52.488;13.428;2023-06-14T05:46:02;101368.88;;;17.82;54.29
75420;BME280;63998;52.488;13.428;2023-06-14T05:48:28;101371.50;;;17.81;53.83
75420;BME280;63998;52.488;13.428;2023-06-14T05:50:54;101373.31;;;17.79;54.10
75420;BME280;63998;52.488;13.428;2023-06-14T05:53:19;101378.50;;;17.82;53.74
75420;BME280;63998;52.488;13.428;2023-06-14T05:55:44;101378.50;;;17.82;54.11
75420;BME280;63998;52.488;13.428;2023-06-14T05:58:10;101382.88;;;17.83;54.19
75420;BME280;63998;52.488;13.428;2023-06-14T06:00:36;101378.41;;;17.88;54.27
75420;BME280;63998;52.488;13.428;2023-06-14T06:03:01;101381.81;;;17.93;53.75
75420;BME280;63998;52.488;13.428;2023-06-14T06:05:27;101380.09;;;17.92;54.02
75420;BME280;63998;52.488;13.428;2023-06-14T06:07:52;101387.00;;;17.96;53.86
75420;BME280;63998;52.488;13.428;2023-06-14T06:10:17;101386.16;;;17.95;54.05
75420;BME280;63998;52.488;13.428;2023-06-14T06:12:43;101376.50;;;17.96;54.12
75420;BME280;63998;52.488;13.428;2023-06-14T06:15:09;101386.97;;;17.99;53.58
75420;BME280;63998;52.488;13.428;2023-06-14T06:17:38;101386.03;;;18.03;53.62
75420;BME280;63998;52.488;13.428;2023-06-14T06:20:05;101385.91;;;18.08;53.40
75420;BME280;63998;52.488;13.428;2023-06-14T06:22:33;101390.25;;;18.10;53.66
75420;BME280;63998;52.488;13.428;2023-06-14T06:24:59;101386.69;;;18.14;53.22
75420;BME280;63998;52.488;13.428;2023-06-14T06:27:24;101380.47;;;18.18;53.61
75420;BME280;63998;52.488;13.428;2023-06-14T06:29:49;101379.56;;;18.19;53.70
75420;BME280;63998;52.488;13.428;2023-06-14T06:32:16;101375.16;;;18.20;53.19
75420;BME280;63998;52.488;13.428;2023-06-14T06:34:42;101378.69;;;18.19;53.70
75420;BME280;63998;52.488;13.428;2023-06-14T06:37:07;101380.34;;;18.24;53.15
75420;BME280;63998;52.488;13.428;2023-06-14T06:39:32;101381.00;;;18.36;53.31
75420;BME280;63998;52.488;13.428;2023-06-14T06:41:58;101380.81;;;18.45;52.82
75420;BME280;63998;52.488;13.428;2023-06-14T06:44:23;101376.16;;;18.57;52.27
75420;BME280;63998;52.488;13.428;2023-06-14T06:46:48;101385.75;;;18.63;52.55
75420;BME280;63998;52.488;13.428;2023-06-14T06:49:14;101388.13;;;18.75;52.66
75420;BME280;63998;52.488;13.428;2023-06-14T06:51:42;101384.47;;;18.81;51.90
75420;BME280;63998;52.488;13.428;2023-06-14T06:54:09;101395.69;;;18.90;51.97
75420;BME280;63998;52.488;13.428;2023-06-14T06:56:35;101390.28;;;18.96;51.85
75420;BME280;63998;52.488;13.428;2023-06-14T06:59:00;101388.31;;;19.05;51.65
75420;BME280;63998;52.488;13.428;2023-06-14T07:01:26;101391.63;;;19.16;51.54
75420;BME280;63998;52.488;13.428;2023-06-14T07:03:54;101396.66;;;19.25;51.13
75420;BME280;63998;52.488;13.428;2023-06-14T07:06:20;101393.03;;;19.29;51.00
75420;BME280;63998;52.488;13.428;2023-06-14T07:08:45;101399.84;;;19.39;50.54
75420;BME280;63998;52.488;13.428;2023-06-14T07:11:13;101399.59;;;19.48;50.44
75420;BME280;63998;52.488;13.428;2023-06-14T07:13:39;101400.31;;;19.56;50.06
75420;BME280;63998;52.488;13.428;2023-06-14T07:16:04;101400.84;;;19.70;50.07
75420;BME280;63998;52.488;13.428;2023-06-14T07:18:30;101405.16;;;19.73;49.79
75420;BME280;63998;52.488;13.428;2023-06-14T07:20:56;101409.34;;;19.82;49.67
75420;BME280;63998;52.488;13.428;2023-06-14T07:23:22;101402.19;;;19.87;49.55
75420;BME280;63998;52.488;13.428;2023-06-14T07:25:48;101414.38;;;19.91;49.26
75420;BME280;63998;52.488;13.428;2023-06-14T07:28:13;101411.50;;;20.00;49.04
75420;BME280;63998;52.488;13.428;2023-06-14T07:30:39;101419.03;;;20.15;48.83
75420;BME280;63998;52.488;13.428;2023-06-14T07:33:04;101415.31;;;20.22;48.16
75420;BME280;63998;52.488;13.428;2023-06-14T07:35:31;101418.47;;;20.36;48.26
75420;BME280;63998;52.488;13.428;2023-06-14T07:37:56;101418.22;;;20.46;48.03
75420;BME280;63998;52.488;13.428;2023-06-14T07:40:21;101417.94;;;20.55;47.83
75420;BME280;63998;52.488;13.428;2023-06-14T07:42:47;101421.25;;;20.63;48.29
75420;BME280;63998;52.488;13.428;2023-06-14T07:45:13;101416.56;;;20.41;48.14
75420;BME280;63998;52.488;13.428;2023-06-14T07:47:39;101427.50;;;20.26;48.26
75420;BME280;63998;52.488;13.428;2023-06-14T07:50:05;101422.13;;;20.29;48.14
75420;BME280;63998;52.488;13.428;2023-06-14T07:52:30;101413.94;;;20.40;48.27
75420;BME280;63998;52.488;13.428;2023-06-14T07:54:56;101408.66;;;20.40;48.18
75420;BME280;63998;52.488;13.428;2023-06-14T07:57:22;101411.50;;;20.32;48.32
75420;BME280;63998;52.488;13.428;2023-06-14T07:59:47;101412.28;;;20.37;48.29
75420;BME280;63998;52.488;13.428;2023-06-14T08:02:12;101406.47;;;20.56;48.15
75420;BME280;63998;52.488;13.428;2023-06-14T08:04:38;101403.47;;;20.68;47.96
75420;BME280;63998;52.488;13.428;2023-06-14T08:07:04;101397.94;;;20.77;47.50
75420;BME280;63998;52.488;13.428;2023-06-14T08:09:29;101398.63;;;20.84;47.39
75420;BME280;63998;52.488;13.428;2023-06-14T08:11:55;101395.16;;;20.82;47.32
75420;BME280;63998;52.488;13.428;2023-06-14T08:14:21;101399.28;;;20.90;47.05
75420;BME280;63998;52.488;13.428;2023-06-14T08:16:46;101402.56;;;20.98;46.75
75420;BME280;63998;52.488;13.428;2023-06-14T08:19:11;101390.00;;;21.06;46.53
75420;BME280;63998;52.488;13.428;2023-06-14T08:21:37;101397.63;;;21.15;46.36
75420;BME280;63998;52.488;13.428;2023-06-14T08:24:02;101398.44;;;21.17;46.24
75420;BME280;63998;52.488;13.428;2023-06-14T08:26:29;101391.19;;;21.26;46.11
75420;BME280;63998;52.488;13.428;2023-06-14T08:28:55;101401.25;;;21.41;45.97
75420;BME280;63998;52.488;13.428;2023-06-14T08:31:21;101401.88;;;21.49;45.80
75420;BME280;63998;52.488;13.428;2023-06-14T08:33:46;101401.16;;;21.44;45.32
75420;BME280;63998;52.488;13.428;2023-06-14T08:36:12;101398.97;;;21.01;45.86
75420;BME280;63998;52.488;13.428;2023-06-14T08:38:38;101396.13;;;21.07;46.09
75420;BME280;63998;52.488;13.428;2023-06-14T08:41:05;101400.47;;;21.09;45.87
75420;BME280;63998;52.488;13.428;2023-06-14T08:43:33;101395.84;;;21.16;45.55
75420;BME280;63998;52.488;13.428;2023-06-14T08:46:01;101390.50;;;21.19;45.89
75420;BME280;63998;52.488;13.428;2023-06-14T08:48:27;101396.56;;;21.23;45.60
75420;BME280;63998;52.488;13.428;2023-06-14T08:50:55;101396.47;;;21.26;45.37
75420;BME280;63998;52.488;13.428;2023-06-14T08:53:28;101399.91;;;21.28;44.94
75420;BME280;63998;52.488;13.428;2023-06-14T08:55:54;101399.81;;;21.31;44.86
75420;BME280;63998;52.488;13.428;2023-06-14T08:58:20;101402.97;;;21.42;44.84
75420;BME280;63998;52.488;13.428;2023-06-14T09:00:49;101397.59;;;21.45;44.62
75420;BME280;63998;52.488;13.428;2023-06-14T09:03:17;101405.13;;;21.57;44.46
75420;BME280;63998;52.488;13.428;2023-06-14T09:05:45;101403.50;;;21.53;44.13
75420;BME280;63998;52.488;13.428;2023-06-14T09:08:12;101400.91;;;21.78;44.11
75420;BME280;63998;52.488;13.428;2023-06-14T09:10:39;101402.94;;;21.96;43.80
75420;BME280;63998;52.488;13.428;2023-06-14T09:13:05;101407.00;;;22.06;43.49
75420;BME280;63998;52.488;13.428;2023-06-14T09:15:31;101407.78;;;22.10;43.21
75420;BME280;63998;52.488;13.428;2023-06-14T09:17:57;101399.03;;;22.08;43.50
75420;BME280;63998;52.488;13.428;2023-06-14T09:20:24;101408.41;;;22.16;43.21
75420;BME280;63998;52.488;13.428;2023-06-14T09:22:49;101402.00;;;22.24;43.19
75420;BME280;63998;52.488;13.428;2023-06-14T09:25:15;101394.16;;;22.20;42.87
75420;BME280;63998;52.488;13.428;2023-06-14T09:27:41;101401.72;;;22.31;42.93
75420;BME280;63998;52.488;13.428;2023-06-14T09:30:09;101403.88;;;22.20;42.25
75420;BME280;63998;52.488;13.428;2023-06-14T09:32:39;101411.25;;;22.12;42.17
75420;BME280;63998;52.488;13.428;2023-06-14T09:35:06;101404.31;;;22.08;42.28
75420;BME280;63998;52.488;13.428;2023-06-14T09:37:32;101406.53;;;22.20;42.40
75420;BME280;63998;52.488;13.428;2023-06-14T09:39:58;101409.19;;;22.43;42.27
75420;BME280;63998;52.488;13.428;2023-06-14T09:42:24;101408.47;;;22.63;41.91
75420;BME280;63998;52.488;13.428;2023-06-14T09:44:54;101404.28;;;22.81;41.74
75420;BME280;63998;52.488;13.428;2023-06-14T09:47:21;101402.91;;;22.94;41.54
75420;BME280;63998;52.488;13.428;2023-06-14T09:49:47;101405.78;;;23.11;41.07
75420;BME280;63998;52.488;13.428;2023-06-14T09:52:20;101396.81;;;23.14;40.70
75420;BME280;63998;52.488;13.428;2023-06-14T09:54:47;101404.28;;;23.04;40.58
75420;BME280;63998;52.488;13.428;2023-06-14T09:57:15;101404.38;;;23.01;40.36
75420;BME280;63998;52.488;13.428;2023-06-14T09:59:45;101402.44;;;23.06;40.64
75420;BME280;63998;52.488;13.428;2023-06-14T10:02:34;101411.88;;;22.90;40.66
75420;BME280;63998;52.488;13.428;2023-06-14T10:05:07;101405.91;;;22.85;40.68
75420;BME280;63998;52.488;13.428;2023-06-14T10:08:01;101401.00;;;22.74;40.65
75420;BME280;63998;52.488;13.428;2023-06-14T10:10:29;101405.31;;;22.77;41.20
75420;BME280;63998;52.488;13.428;2023-06-14T10:12:54;101404.34;;;22.79;41.27
75420;BME280;63998;52.488;13.428;2023-06-14T10:15:29;101403.59;;;22.76;40.89
75420;BME280;63998;52.488;13.428;2023-06-14T10:18:00;101393.44;;;22.64;40.70
75420;BME280;63998;52.488;13.428;2023-06-14T10:20:44;101393.69;;;22.57;40.59
75420;BME280;63998;52.488;13.428;2023-06-14T10:25:43;101395.56;;;22.54;40.97
75420;BME280;63998;52.488;13.428;2023-06-14T10:28:16;101394.59;;;22.33;41.33
75420;BME280;63998;52.488;13.428;2023-06-14T10:31:09;101395.22;;;22.40;41.20
75420;BME280;63998;52.488;13.428;2023-06-14T10:33:39;101387.31;;;22.38;41.28
75420;BME280;63998;52.488;13.428;2023-06-14T10:39:04;101388.72;;;22.48;41.21
75420;BME280;63998;52.488;13.428;2023-06-14T10:41:34;101389.88;;;22.65;41.09
75420;BME280;63998;52.488;13.428;2023-06-14T10:46:46;101389.09;;;22.86;40.63
75420;BME280;63998;52.488;13.428;2023-06-14T10:49:12;101383.56;;;22.92;40.55
75420;BME280;63998;52.488;13.428;2023-06-14T10:51:45;101384.47;;;22.91;40.06
75420;BME280;63998;52.488;13.428;2023-06-14T10:54:14;101378.84;;;22.77;40.00
75420;BME280;63998;52.488;13.428;2023-06-14T10:56:52;101373.06;;;22.89;40.30
75420;BME280;63998;52.488;13.428;2023-06-14T10:59:19;101373.81;;;23.14;40.15
75420;BME280;63998;52.488;13.428;2023-06-14T11:04:47;101372.06;;;23.37;39.31
75420;BME280;63998;52.488;13.428;2023-06-14T11:07:41;101360.38;;;23.41;39.28
75420;BME280;63998;52.488;13.428;2023-06-14T11:10:37;101364.63;;;23.67;39.35
75420;BME280;63998;52.488;13.428;2023-06-14T11:13:03;101359.66;;;23.79;38.98
75420;BME280;63998;52.488;13.428;2023-06-14T11:15:30;101361.78;;;23.91;38.89
75420;BME280;63998;52.488;13.428;2023-06-14T11:17:56;101354.00;;;24.07;38.25
75420;BME280;63998;52.488;13.428;2023-06-14T11:20:25;101355.69;;;24.10;37.84
75420;BME280;63998;52.488;13.428;2023-06-14T11:22:51;101354.94;;;24.06;37.67
75420;BME280;63998;52.488;13.428;2023-06-14T11:25:17;101354.22;;;24.03;37.75
75420;BME280;63998;52.488;13.428;2023-06-14T11:27:43;101347.03;;;24.05;37.45
75420;BME280;63998;52.488;13.428;2023-06-14T11:30:08;101352.22;;;24.08;37.30
75420;BME280;63998;52.488;13.428;2023-06-14T11:32:35;101344.19;;;24.09;37.05
75420;BME280;63998;52.488;13.428;2023-06-14T11:35:02;101340.69;;;23.88;37.27
75420;BME280;63998;52.488;13.428;2023-06-14T11:37:28;101345.50;;;24.19;37.52
75420;BME280;63998;52.488;13.428;2023-06-14T11:39:57;101336.47;;;24.23;37.05
75420;BME280;63998;52.488;13.428;2023-06-14T11:42:23;101335.66;;;24.23;36.61
75420;BME280;63998;52.488;13.428;2023-06-14T11:44:49;101331.03;;;24.26;36.59
75420;BME280;63998;52.488;13.428;2023-06-14T11:47:14;101328.59;;;24.22;36.33
75420;BME280;63998;52.488;13.428;2023-06-14T11:49:40;101325.75;;;24.06;36.53
75420;BME280;63998;52.488;13.428;2023-06-14T11:52:05;101319.50;;;23.87;36.77
75420;BME280;63998;52.488;13.428;2023-06-14T11:54:32;101313.22;;;24.10;36.47
75420;BME280;63998;52.488;13.428;2023-06-14T11:56:58;101318.44;;;24.31;36.32
75420;BME280;63998;52.488;13.428;2023-06-14T11:59:24;101308.09;;;24.44;36.19
75420;BME280;63998;52.488;13.428;2023-06-14T12:01:50;101300.34;;;24.58;35.93
75420;BME280;63998;52.488;13.428;2023-06-14T12:04:24;101298.31;;;24.82;35.29
75420;BME280;63998;52.488;13.428;2023-06-14T12:06:50;101300.69;;;25.24;34.71
75420;BME280;63998;52.488;13.428;2023-06-14T12:09:18;101304.88;;;25.64;33.87
75420;BME280;63998;52.488;13.428;2023-06-14T12:11:45;101295.50;;;26.07;33.06
75420;BME280;63998;52.488;13.428;2023-06-14T12:14:10;101291.00;;;26.72;32.15
75420;BME280;63998;52.488;13.428;2023-06-14T12:16:38;101287.31;;;26.59;31.59
75420;BME280;63998;52.488;13.428;2023-06-14T12:19:26;101280.13;;;26.93;31.06
75420;BME280;63998;52.488;13.428;2023-06-14T12:21:51;101277.94;;;26.99;31.26
75420;BME280;63998;52.488;13.428;2023-06-14T12:24:17;101278.63;;;27.03;30.91
75420;BME280;63998;52.488;13.428;2023-06-14T12:26:42;101275.97;;;27.03;30.20
75420;BME280;63998;52.488;13.428;2023-06-14T12:29:08;101272.69;;;27.43;30.83
75420;BME280;63998;52.488;13.428;2023-06-14T12:31:33;101267.50;;;27.10;30.42
75420;BME280;63998;52.488;13.428;2023-06-14T12:33:59;101269.28;;;27.26;30.32
75420;BME280;63998;52.488;13.428;2023-06-14T12:36:25;101267.81;;;27.80;30.07
75420;BME280;63998;52.488;13.428;2023-06-14T12:38:51;101265.69;;;27.99;29.29
75420;BME280;63998;52.488;13.428;2023-06-14T12:41:19;101264.56;;;28.17;28.83
75420;BME280;63998;52.488;13.428;2023-06-14T12:43:46;101260.13;;;28.45;28.54
75420;BME280;63998;52.488;13.428;2023-06-14T12:46:11;101265.47;;;28.59;27.67
75420;BME280;63998;52.488;13.428;2023-06-14T12:48:36;101259.44;;;28.97;28.65
75420;BME280;63998;52.488;13.428;2023-06-14T12:51:02;101258.88;;;29.31;27.24
75420;BME280;63998;52.488;13.428;2023-06-14T12:53:27;101254.03;;;29.50;26.12
75420;BME280;63998;52.488;13.428;2023-06-14T12:55:52;101242.66;;;29.47;24.67
75420;BME280;63998;52.488;13.428;2023-06-14T12:58:18;101250.78;;;29.45;25.88